createdAt,value
2018-01-22T00:01:37.283Z,97972.54
2018-01-22T00:04:05.000Z,97978.45
2018-01-22T00:06:32.815Z,97979.55
2018-01-22T00:09:00.635Z,97976.47
2018-01-22T00:11:28.218Z,97976.95
2018-01-22T00:13:55.738Z,97983.48
2018-01-22T00:16:23.490Z,97984.66
2018-01-22T00:18:51.205Z,97984.02
2018-01-22T00:21:19.993Z,97989.20
2018-01-22T00:23:47.569Z,97983.51
2018-01-22T00:26:15.095Z,97986.23
2018-01-22T00:28:42.618Z,97999.76
2018-01-22T00:31:10.193Z,98001.80
2018-01-22T00:33:37.815Z,98009.71
2018-01-22T00:36:05.350Z,98008.19
2018-01-22T00:38:33.151Z,97999.56
2018-01-22T00:41:00.870Z,98005.49
2018-01-22T00:43:28.398Z,98007.50
2018-01-22T00:45:56.111Z,98001.36
2018-01-22T00:48:23.661Z,98010.72
2018-01-22T00:50:51.187Z,98012.45
2018-01-22T00:53:18.753Z,98017.16
2018-01-22T00:55:46.286Z,98015.95
2018-01-22T00:58:13.813Z,98016.17
2018-01-22T01:00:41.510Z,98023.30
2018-01-22T01:03:09.037Z,98023.72
2018-01-22T01:05:36.568Z,98027.14
2018-01-22T01:08:04.166Z,98028.55
2018-01-22T01:10:31.746Z,98027.84
2018-01-22T01:12:59.333Z,98031.20
2018-01-22T01:15:26.910Z,98030.89
2018-01-22T01:17:54.437Z,98028.23
2018-01-22T01:20:22.057Z,98030.51
2018-01-22T01:22:49.872Z,98027.84
2018-01-22T01:25:17.401Z,98029.67
2018-01-22T01:27:45.111Z,98030.72
2018-01-22T01:30:12.933Z,98034.36
2018-01-22T01:32:40.469Z,98037.25
2018-01-22T01:35:08.213Z,98037.89
2018-01-22T01:37:35.882Z,98040.97
2018-01-22T01:40:03.699Z,98043.47
2018-01-22T01:42:31.315Z,98037.49
2018-01-22T01:44:58.895Z,98038.46
2018-01-22T01:47:26.409Z,98047.03
2018-01-22T01:49:53.967Z,98047.44
2018-01-22T01:52:21.938Z,98046.06
2018-01-22T01:54:49.706Z,98040.82
2018-01-22T01:57:17.322Z,98050.06
2018-01-22T01:59:44.889Z,98039.64
2018-01-22T02:02:12.414Z,98041.91
2018-01-22T02:04:39.941Z,98047.80
2018-01-22T02:07:07.513Z,98051.41
2018-01-22T02:09:35.033Z,98047.51
2018-01-22T02:12:02.563Z,98059.91
2018-01-22T02:14:30.137Z,98048.97
2018-01-22T02:16:57.706Z,98050.95
2018-01-22T02:19:25.382Z,98051.82
2018-01-22T02:21:53.043Z,98060.36
2018-01-22T02:24:20.727Z,98066.17
2018-01-22T02:26:48.437Z,98072.31
2018-01-22T02:29:16.005Z,98070.58
2018-01-22T02:31:43.530Z,98073.23
2018-01-22T02:34:11.054Z,98080.69
2018-01-22T02:36:38.618Z,98077.07
2018-01-22T02:39:06.134Z,98076.44
2018-01-22T02:41:33.698Z,98088.55
2018-01-22T02:44:01.265Z,98080.97
2018-01-22T02:46:28.978Z,98081.16
2018-01-22T02:48:56.511Z,98083.53
2018-01-22T02:51:24.314Z,98077.87
2018-01-22T02:53:51.858Z,98081.23
2018-01-22T02:56:19.443Z,98078.13
2018-01-22T02:58:47.010Z,98078.06
2018-01-22T03:01:14.538Z,98083.97
2018-01-22T03:03:42.303Z,98088.09
2018-01-22T03:06:09.874Z,98088.35
2018-01-22T03:08:37.539Z,98093.97
2018-01-22T03:11:05.255Z,98093.33
2018-01-22T03:13:32.838Z,98095.19
2018-01-22T03:16:00.430Z,98088.95
2018-01-22T03:18:27.990Z,98078.12
2018-01-22T03:20:55.558Z,98096.28
2018-01-22T03:23:23.356Z,98090.49
2018-01-22T03:25:51.264Z,98104.20
2018-01-22T03:28:18.833Z,98099.38
2018-01-22T03:30:46.501Z,98108.70
2018-01-22T03:33:14.026Z,98109.30
2018-01-22T03:35:41.604Z,98102.27
2018-01-22T03:38:09.134Z,98112.45
2018-01-22T03:40:36.658Z,98110.49
2018-01-22T03:43:04.490Z,98117.52
2018-01-22T03:45:32.108Z,98115.53
2018-01-22T03:47:59.639Z,98119.05
2018-01-22T03:50:27.213Z,98112.38
2018-01-22T03:52:54.738Z,98107.29
2018-01-22T03:55:22.267Z,98111.37
2018-01-22T03:57:49.847Z,98110.31
2018-01-22T04:00:17.614Z,98118.46
2018-01-22T04:02:45.234Z,98115.34
2018-01-22T04:05:12.809Z,98115.72
2018-01-22T04:07:40.470Z,98114.89
2018-01-22T04:10:08.006Z,98124.38
2018-01-22T04:12:35.702Z,98129.45
2018-01-22T04:15:03.274Z,98130.72
2018-01-22T04:17:31.039Z,98127.74
2018-01-22T04:19:58.610Z,98133.18
2018-01-22T04:22:26.190Z,98132.38
2018-01-22T04:24:53.893Z,98136.69
2018-01-22T04:27:21.714Z,98135.29
2018-01-22T04:29:49.428Z,98142.22
2018-01-22T04:32:17.014Z,98152.41
2018-01-22T04:34:44.682Z,98148.26
2018-01-22T04:37:12.214Z,98149.98
2018-01-22T04:39:39.742Z,98160.02
2018-01-22T04:42:07.342Z,98162.88
2018-01-22T04:44:34.870Z,98171.98
2018-01-22T04:47:02.393Z,98178.30
2018-01-22T04:49:30.071Z,98171.73
2018-01-22T04:51:57.635Z,98176.14
2018-01-22T04:54:25.614Z,98176.38
2018-01-22T04:56:53.181Z,98177.21
2018-01-22T04:59:20.706Z,98175.45
2018-01-22T05:01:48.281Z,98178.84
2018-01-22T05:04:16.079Z,98178.48
2018-01-22T05:06:43.694Z,98188.34
2018-01-22T05:09:11.229Z,98184.28
2018-01-22T05:11:38.813Z,98192.50
2018-01-22T05:14:06.402Z,98200.93
2018-01-22T05:16:33.930Z,98198.34
2018-01-22T05:19:01.787Z,98206.56
2018-01-22T05:21:29.306Z,98205.42
2018-01-22T05:23:56.930Z,98214.77
2018-01-22T05:26:24.646Z,98207.37
2018-01-22T05:28:52.174Z,98213.64
2018-01-22T05:31:19.694Z,98217.16
2018-01-22T05:33:47.292Z,98214.23
2018-01-22T05:36:14.826Z,98217.55
2018-01-22T05:38:42.374Z,98220.85
2018-01-22T05:41:09.946Z,98222.80
2018-01-22T05:43:37.472Z,98219.16
2018-01-22T05:46:05.255Z,98219.45
2018-01-22T05:48:32.999Z,98209.70
2018-01-22T05:51:00.719Z,98218.02
2018-01-22T05:53:28.439Z,98216.98
2018-01-22T05:55:56.003Z,98216.59
2018-01-22T05:58:23.570Z,98224.69
2018-01-22T06:00:51.174Z,98224.90
2018-01-22T06:03:18.707Z,98232.80
2018-01-22T06:05:46.315Z,98231.31
2018-01-22T06:08:13.947Z,98230.68
2018-01-22T06:10:41.659Z,98237.01
2018-01-22T06:13:09.352Z,98241.00
2018-01-22T06:15:36.909Z,98242.87
2018-01-22T06:18:04.538Z,98251.09
2018-01-22T06:20:32.231Z,98250.81
2018-01-22T06:22:59.761Z,98252.73
2018-01-22T06:25:27.346Z,98253.66
2018-01-22T06:27:55.095Z,98258.49
2018-01-22T06:30:22.688Z,98262.50
2018-01-22T06:32:50.242Z,98258.35
2018-01-22T06:35:17.943Z,98263.88
2018-01-22T06:37:45.547Z,98263.56
2018-01-22T06:40:13.086Z,98272.06
2018-01-22T06:42:40.726Z,98275.62
2018-01-22T06:45:08.276Z,98281.56
2018-01-22T06:47:35.818Z,98273.12
2018-01-22T06:50:03.525Z,98285.63
2018-01-22T06:52:31.064Z,98290.42
2018-01-22T06:54:58.880Z,98288.98
2018-01-22T06:57:26.422Z,98300.64
2018-01-22T06:59:53.954Z,98297.55
2018-01-22T07:02:21.497Z,98300.63
2018-01-22T07:04:49.064Z,98300.73
2018-01-22T07:07:16.654Z,98302.17
2018-01-22T07:09:44.290Z,98304.22
2018-01-22T07:12:11.843Z,98316.18
2018-01-22T07:14:39.373Z,98318.87
2018-01-22T07:17:07.698Z,98322.52
2018-01-22T07:19:35.400Z,98325.56
2018-01-22T07:22:03.128Z,98327.55
2018-01-22T07:24:30.851Z,98327.34
2018-01-22T07:26:58.417Z,98335.31
2018-01-22T07:29:26.053Z,98333.38
2018-01-22T07:31:53.661Z,98330.67
2018-01-22T07:34:21.275Z,98334.00
2018-01-22T07:36:49.010Z,98346.16
2018-01-22T07:39:16.641Z,98352.53
2018-01-22T07:41:44.343Z,98347.92
2018-01-22T07:44:11.942Z,98354.77
2018-01-22T07:46:39.758Z,98348.72
2018-01-22T07:49:07.491Z,98349.25
2018-01-22T07:51:35.496Z,98357.19
2018-01-22T07:54:03.390Z,98348.28
2018-01-22T07:56:31.066Z,98348.94
2018-01-22T07:58:58.654Z,98350.88
2018-01-22T08:01:26.328Z,98367.25
2018-01-22T08:03:53.953Z,98365.52
2018-01-22T08:06:21.853Z,98369.81
2018-01-22T08:08:49.689Z,98372.91
2018-01-22T08:11:17.341Z,98373.95
2018-01-22T08:13:44.926Z,98379.36
2018-01-22T08:16:12.639Z,98374.51
2018-01-22T08:18:40.364Z,98385.22
2018-01-22T08:21:08.110Z,98387.95
2018-01-22T08:23:35.651Z,98390.98
2018-01-22T08:26:03.350Z,98392.30
2018-01-22T08:28:30.889Z,98391.97
2018-01-22T08:30:59.062Z,98397.59
2018-01-22T08:33:26.711Z,98406.23
2018-01-22T08:35:54.450Z,98403.48
2018-01-22T08:38:22.825Z,98401.08
2018-01-22T08:40:50.460Z,98406.76
2018-01-22T08:43:18.042Z,98411.73
2018-01-22T08:45:45.595Z,98419.77
2018-01-22T08:48:13.162Z,98419.30
2018-01-22T08:50:40.934Z,98421.67
2018-01-22T08:53:08.575Z,98432.09
2018-01-22T08:55:36.158Z,98428.41
2018-01-22T08:58:03.690Z,98422.20
2018-01-22T09:00:31.230Z,98425.39
2018-01-22T09:02:58.810Z,98427.62
2018-01-22T09:05:26.479Z,98429.25
2018-01-22T09:07:54.192Z,98427.65
2018-01-22T09:10:21.879Z,98426.63
2018-01-22T09:12:49.594Z,98431.03
2018-01-22T09:15:17.194Z,98431.03
2018-01-22T09:17:44.710Z,98434.03
2018-01-22T09:20:12.764Z,98430.13
2018-01-22T09:22:41.058Z,98432.20
2018-01-22T09:25:08.884Z,98431.50
2018-01-22T09:27:36.456Z,98435.53
2018-01-22T09:30:04.030Z,98439.02
2018-01-22T09:32:31.744Z,98426.52
2018-01-22T09:34:59.358Z,98435.36
2018-01-22T09:37:26.992Z,98442.12
2018-01-22T09:39:54.619Z,98442.89
2018-01-22T09:42:22.141Z,98440.81
2018-01-22T09:44:50.026Z,98442.99
2018-01-22T09:47:17.551Z,98441.62
2018-01-22T09:49:45.077Z,98453.83
2018-01-22T09:52:12.654Z,98443.20
2018-01-22T09:54:40.187Z,98443.33
2018-01-22T09:57:07.829Z,98447.20
2018-01-22T09:59:35.504Z,98449.29
2018-01-22T10:02:03.030Z,98450.66
2018-01-22T10:04:30.568Z,98452.80
2018-01-22T10:06:58.098Z,98450.45
2018-01-22T10:09:25.799Z,98446.37
2018-01-22T10:11:53.393Z,98447.86
2018-01-22T10:14:21.544Z,98450.66
2018-01-22T10:16:49.107Z,98458.48
2018-01-22T10:19:16.674Z,98460.38
2018-01-22T10:21:44.498Z,98459.02
2018-01-22T10:24:12.039Z,98458.12
2018-01-22T10:26:39.835Z,98464.05
2018-01-22T10:29:07.652Z,98470.92
2018-01-22T10:31:35.182Z,98469.36
2018-01-22T10:34:02.888Z,98476.04
2018-01-22T10:36:30.508Z,98483.01
2018-01-22T10:38:58.038Z,98479.85
2018-01-22T10:41:25.741Z,98476.42
2018-01-22T10:43:53.360Z,98484.02
2018-01-22T10:46:20.983Z,98484.58
2018-01-22T10:48:48.521Z,98486.38
2018-01-22T10:51:16.413Z,98492.77
2018-01-22T10:53:43.958Z,98493.07
2018-01-22T10:56:11.541Z,98496.22
2018-01-22T10:58:39.126Z,98487.18
2018-01-22T11:01:06.675Z,98497.84
2018-01-22T11:03:34.205Z,98503.11
2018-01-22T11:06:01.746Z,98508.13
2018-01-22T11:08:29.286Z,98504.78
2018-01-22T11:10:56.973Z,98506.52
2018-01-22T11:13:25.042Z,98511.45
2018-01-22T11:15:58.286Z,98503.15
2018-01-22T11:18:26.031Z,98518.17
2018-01-22T11:20:53.574Z,98525.05
2018-01-22T11:23:21.118Z,98520.05
2018-01-22T11:25:48.875Z,98519.16
2018-01-22T11:28:16.458Z,98523.05
2018-01-22T11:30:43.998Z,98524.04
2018-01-22T11:33:11.534Z,98533.47
2018-01-22T11:35:39.085Z,98539.23
2018-01-22T11:38:06.770Z,98536.67
2018-01-22T11:40:34.494Z,98546.27
2018-01-22T11:43:02.118Z,98545.28
2018-01-22T11:45:29.831Z,98542.37
2018-01-22T11:47:57.762Z,98543.23
2018-01-22T11:50:25.296Z,98547.11
2018-01-22T11:52:53.023Z,98547.20
2018-01-22T11:55:20.560Z,98543.63
2018-01-22T11:57:48.118Z,98548.75
2018-01-22T12:00:15.727Z,98551.81
2018-01-22T12:02:43.262Z,98556.16
2018-01-22T12:05:11.062Z,98560.33
2018-01-22T12:07:38.642Z,98556.47
2018-01-22T12:10:06.310Z,98560.77
2018-01-22T12:12:33.864Z,98561.55
2018-01-22T12:15:01.522Z,98569.38
2018-01-22T12:17:29.102Z,98565.64
2018-01-22T12:19:56.846Z,98565.59
2018-01-22T12:22:24.736Z,98565.25
2018-01-22T12:24:52.313Z,98568.66
2018-01-22T12:27:20.031Z,98572.05
2018-01-22T12:29:47.566Z,98576.52
2018-01-22T12:32:15.367Z,98573.52
2018-01-22T12:34:42.913Z,98583.40
2018-01-22T12:37:10.453Z,98593.67
2018-01-22T12:39:38.047Z,98593.52
2018-01-22T12:42:05.591Z,98593.94
2018-01-22T12:44:33.130Z,98597.08
2018-01-22T12:47:00.765Z,98601.36
2018-01-22T12:49:28.399Z,98601.28
2018-01-22T12:51:55.939Z,98603.88
2018-01-22T12:54:23.491Z,98602.06
2018-01-22T12:56:51.047Z,98606.34
2018-01-22T12:59:18.754Z,98612.63
2018-01-22T13:01:46.319Z,98609.76
2018-01-22T13:04:13.862Z,98618.43
2018-01-22T13:06:41.507Z,98621.84
2018-01-22T13:09:09.042Z,98627.20
2018-01-22T13:11:36.754Z,98632.23
2018-01-22T13:14:04.342Z,98642.78
2018-01-22T13:16:31.872Z,98640.88
2018-01-22T13:18:59.412Z,98642.57
2018-01-22T13:21:26.998Z,98652.00
2018-01-22T13:23:54.598Z,98656.55
2018-01-22T13:26:22.134Z,98657.14
2018-01-22T13:28:49.774Z,98654.22
2018-01-22T13:31:17.310Z,98662.05
2018-01-22T13:33:44.847Z,98663.34
2018-01-22T13:36:12.535Z,98671.91
2018-01-22T13:38:40.070Z,98663.59
2018-01-22T13:41:13.521Z,98671.73
2018-01-22T13:43:41.057Z,98678.80
2018-01-22T13:46:08.821Z,98683.04
2018-01-22T13:48:36.375Z,98676.14
2018-01-22T13:51:03.917Z,98687.09
2018-01-22T13:53:31.510Z,98689.59
2018-01-22T13:55:59.222Z,98689.40
2018-01-22T13:58:26.926Z,98693.00
2018-01-22T14:00:54.526Z,98705.44
2018-01-22T14:03:22.078Z,98702.60
2018-01-22T14:05:49.783Z,98711.08
2018-01-22T14:08:17.580Z,98715.48
2018-01-22T14:10:45.114Z,98708.13
2018-01-22T14:13:12.916Z,98719.95
2018-01-22T14:15:40.490Z,98724.22
2018-01-22T14:18:08.353Z,98730.22
2018-01-22T14:20:35.894Z,98731.58
2018-01-22T14:23:03.425Z,98735.58
2018-01-22T14:25:31.108Z,98744.07
2018-01-22T14:27:58.649Z,98744.23
2018-01-22T14:30:26.346Z,98748.05
2018-01-22T14:32:53.886Z,98747.41
2018-01-22T14:35:21.416Z,98760.34
2018-01-22T14:37:48.985Z,98758.36
2018-01-22T14:40:16.582Z,98765.73
2018-01-22T14:42:44.163Z,98763.69
2018-01-22T14:45:11.698Z,98772.69
2018-01-22T14:47:39.299Z,98777.38
2018-01-22T14:50:06.895Z,98785.38
2018-01-22T14:52:34.603Z,98775.19
2018-01-22T14:55:02.334Z,98784.64
2018-01-22T14:57:29.938Z,98792.80
2018-01-22T14:59:57.490Z,98796.70
2018-01-22T15:02:25.034Z,98799.52
2018-01-22T15:04:52.565Z,98810.45
2018-01-22T15:07:20.142Z,98813.57
2018-01-22T15:09:47.686Z,98816.71
2018-01-22T15:12:15.442Z,98823.02
2018-01-22T15:14:42.990Z,98823.49
2018-01-22T15:17:10.522Z,98833.02
2018-01-22T15:19:38.340Z,98828.89
2018-01-22T15:22:05.947Z,98836.20
2018-01-22T15:24:33.522Z,98844.47
2018-01-22T15:27:01.197Z,98847.48
2018-01-22T15:29:28.735Z,98847.44
2018-01-22T15:31:56.266Z,98852.53
2018-01-22T15:34:23.829Z,98855.10
2018-01-22T15:36:51.522Z,98860.77
2018-01-22T15:39:19.169Z,98864.61
2018-01-22T15:41:46.737Z,98864.02
2018-01-22T15:44:14.266Z,98869.36
2018-01-22T15:46:41.827Z,98867.64
2018-01-22T15:49:09.370Z,98873.17
2018-01-22T15:51:36.952Z,98877.61
2018-01-22T15:54:04.482Z,98875.01
2018-01-22T15:56:32.236Z,98878.28
2018-01-22T15:58:59.777Z,98889.84
2018-01-22T16:01:27.329Z,98892.03
2018-01-22T16:03:54.942Z,98898.56
2018-01-22T16:06:22.496Z,98895.14
2018-01-22T16:08:50.191Z,98905.66
2018-01-22T16:11:17.930Z,98909.53
2018-01-22T16:13:45.649Z,98912.66
2018-01-22T16:16:13.303Z,98916.41
2018-01-22T16:18:40.858Z,98925.38
2018-01-22T16:21:08.541Z,98926.95
2018-01-22T16:23:36.082Z,98929.36
2018-01-22T16:26:03.622Z,98929.98
2018-01-22T16:28:31.395Z,98935.17
2018-01-22T16:30:59.113Z,98936.73
2018-01-22T16:33:26.666Z,98941.89
2018-01-22T16:35:54.449Z,98948.93
2018-01-22T16:38:22.167Z,98945.83
2018-01-22T16:40:49.890Z,98941.47
2018-01-22T16:43:17.422Z,98943.09
2018-01-22T16:45:44.986Z,98948.02
2018-01-22T16:48:12.566Z,98945.61
2018-01-22T16:50:40.097Z,98952.85
2018-01-22T16:53:07.641Z,98957.59
2018-01-22T16:55:35.217Z,98963.42
2018-01-22T16:58:02.755Z,98964.99
2018-01-22T17:00:30.302Z,98963.44
2018-01-22T17:02:58.118Z,98968.81
2018-01-22T17:05:25.658Z,98957.82
2018-01-22T17:07:53.190Z,98961.30
2018-01-22T17:10:20.891Z,98970.73
2018-01-22T17:12:48.426Z,98975.84
2018-01-22T17:15:15.977Z,98978.17
2018-01-22T17:17:43.650Z,98977.47
2018-01-22T17:20:11.248Z,98987.03
2018-01-22T17:22:38.786Z,98987.70
2018-01-22T17:25:06.374Z,98989.09
2018-01-22T17:27:34.022Z,98992.64
2018-01-22T17:30:01.668Z,99000.45
2018-01-22T17:32:29.362Z,98999.82
2018-01-22T17:34:56.897Z,99007.12
2018-01-22T17:37:24.598Z,99015.09
2018-01-22T17:39:52.147Z,99020.27
2018-01-22T17:42:19.900Z,99026.75
2018-01-22T17:44:47.457Z,99028.09
2018-01-22T17:47:15.070Z,99040.34
2018-01-22T17:49:42.682Z,99040.27
2018-01-22T17:52:10.266Z,99040.80
2018-01-22T17:54:37.803Z,99049.23
2018-01-22T17:57:05.402Z,99052.66
2018-01-22T17:59:32.978Z,99053.34
2018-01-22T18:02:00.778Z,99061.02
2018-01-22T18:04:28.426Z,99059.33
2018-01-22T18:06:56.208Z,99058.33
2018-01-22T18:09:23.793Z,99061.33
2018-01-22T18:11:51.333Z,99062.22
2018-01-22T18:14:19.164Z,99064.42
2018-01-22T18:16:46.778Z,99056.48
2018-01-22T18:19:14.316Z,99080.60
2018-01-22T18:21:41.890Z,99078.33
2018-01-22T18:24:09.426Z,99081.46
2018-01-22T18:26:36.981Z,99081.29
2018-01-22T18:29:04.598Z,99091.88
2018-01-22T18:31:32.388Z,99089.16
2018-01-22T18:33:59.917Z,99089.80
2018-01-22T18:36:27.474Z,99093.63
2018-01-22T18:38:55.068Z,99092.25
2018-01-22T18:41:22.654Z,99106.43
2018-01-22T18:43:50.266Z,99098.49
2018-01-22T18:46:17.790Z,99107.56
2018-01-22T18:48:45.611Z,99114.46
2018-01-22T18:51:13.258Z,99115.03
2018-01-22T18:53:40.849Z,99116.89
2018-01-22T18:56:08.423Z,99111.73
2018-01-22T18:58:35.961Z,99120.12
2018-01-22T19:01:03.571Z,99112.70
2018-01-22T19:03:31.208Z,99123.13
2018-01-22T19:05:58.922Z,99123.89
2018-01-22T19:08:26.516Z,99131.67
2018-01-22T19:10:54.042Z,99134.04
2018-01-22T19:13:21.582Z,99138.66
2018-01-22T19:15:49.117Z,99139.89
2018-01-22T19:18:16.739Z,99139.17
2018-01-22T19:20:44.293Z,99144.22
2018-01-22T19:23:12.030Z,99141.03
2018-01-22T19:25:39.582Z,99142.54
2018-01-22T19:28:07.110Z,99134.54
2018-01-22T19:30:34.815Z,99134.19
2018-01-22T19:33:02.360Z,99134.95
2018-01-22T19:35:29.912Z,99138.24
2018-01-22T19:37:57.667Z,99141.20
2018-01-22T19:40:25.383Z,99143.04
2018-01-22T19:42:53.013Z,99144.88
2018-01-22T19:45:20.727Z,99156.91
2018-01-22T19:47:48.253Z,99156.56
2018-01-22T19:50:15.811Z,99159.78
2018-01-22T19:52:43.354Z,99159.48
2018-01-22T19:55:10.964Z,99161.30
2018-01-22T19:57:38.498Z,99167.33
2018-01-22T20:00:06.070Z,99178.02
2018-01-22T20:02:33.817Z,99176.94
2018-01-22T20:05:01.366Z,99173.12
2018-01-22T20:07:28.949Z,99177.32
2018-01-22T20:09:56.486Z,99179.14
2018-01-22T20:12:24.045Z,99184.13
2018-01-22T20:14:51.622Z,99176.54
2018-01-22T20:17:19.150Z,99180.62
2018-01-22T20:19:46.927Z,99180.00
2018-01-22T20:22:14.585Z,99180.36
2018-01-22T20:24:42.147Z,99176.36
2018-01-22T20:27:09.712Z,99185.09
2018-01-22T20:29:37.310Z,99183.39
2018-01-22T20:32:04.886Z,99186.37
2018-01-22T20:34:32.579Z,99190.68
2018-01-22T20:37:00.194Z,99193.11
2018-01-22T20:39:27.808Z,99182.20
2018-01-22T20:41:55.498Z,99198.73
2018-01-22T20:44:23.079Z,99192.20
2018-01-22T20:46:50.618Z,99196.40
2018-01-22T20:49:18.154Z,99204.91
2018-01-22T20:51:45.702Z,99206.05
2018-01-22T20:54:13.705Z,99202.64
2018-01-22T20:56:41.355Z,99206.86
2018-01-22T20:59:08.890Z,99210.75
2018-01-22T21:01:36.430Z,99217.64
2018-01-22T21:04:04.014Z,99217.75
2018-01-22T21:06:31.566Z,99219.14
2018-01-22T21:08:59.324Z,99216.09
2018-01-22T21:11:26.854Z,99215.25
2018-01-22T21:13:54.470Z,99211.44
2018-01-22T21:16:22.022Z,99209.42
2018-01-22T21:18:49.795Z,99203.54
2018-01-22T21:21:17.487Z,99205.34
2018-01-22T21:23:45.132Z,99202.20
2018-01-22T21:26:12.662Z,99210.88
2018-01-22T21:28:40.467Z,99204.80
2018-01-22T21:31:08.006Z,99205.52
2018-01-22T21:33:35.592Z,99205.17
2018-01-22T21:36:03.193Z,99206.92
2018-01-22T21:38:30.893Z,99208.26
2018-01-22T21:40:58.548Z,99216.59
2018-01-22T21:43:26.275Z,99216.12
2018-01-22T21:45:53.890Z,99214.16
2018-01-22T21:48:21.430Z,99217.25
2018-01-22T21:50:48.982Z,99221.76
2018-01-22T21:53:16.714Z,99219.39
2018-01-22T21:55:45.293Z,99221.22
2018-01-22T21:58:12.874Z,99222.37
2018-01-22T22:00:40.421Z,99225.59
2018-01-22T22:03:07.970Z,99228.57
2018-01-22T22:05:35.638Z,99223.35
2018-01-22T22:08:03.329Z,99230.89
2018-01-22T22:10:30.922Z,99227.23
2018-01-22T22:12:58.666Z,99226.80
2018-01-22T22:15:26.312Z,99224.48
2018-01-22T22:17:53.936Z,99232.63
2018-01-22T22:20:21.649Z,99229.60
2018-01-22T22:22:49.299Z,99227.12
2018-01-22T22:25:17.233Z,99222.20
2018-01-22T22:27:44.966Z,99220.42
2018-01-22T22:30:12.618Z,99221.77
2018-01-22T22:32:40.162Z,99221.50
2018-01-22T22:35:07.762Z,99221.45
2018-01-22T22:37:35.379Z,99224.62
2018-01-22T22:40:03.046Z,99224.99
2018-01-22T22:42:30.716Z,99220.59
2018-01-22T22:44:58.246Z,99227.53
2018-01-22T22:47:25.826Z,99226.25
2018-01-22T22:49:53.377Z,99226.19
2018-01-22T22:52:21.078Z,99228.38
2018-01-22T22:54:48.662Z,99231.13
2018-01-22T22:57:16.194Z,99230.31
2018-01-22T22:59:43.773Z,99227.47
2018-01-22T23:02:11.313Z,99230.45
2018-01-22T23:04:38.854Z,99221.89
2018-01-22T23:07:06.454Z,99228.20
2018-01-22T23:09:34.102Z,99220.61
2018-01-22T23:12:01.712Z,99228.21
2018-01-22T23:14:29.340Z,99224.73
2018-01-22T23:16:56.910Z,99224.67
2018-01-22T23:19:24.479Z,99229.61
2018-01-22T23:21:52.090Z,99227.84
2018-01-22T23:24:19.678Z,99235.75
2018-01-22T23:26:47.217Z,99233.25
2018-01-22T23:29:14.815Z,99234.52
2018-01-22T23:31:42.390Z,99244.93
2018-01-22T23:34:09.986Z,99246.75
2018-01-22T23:36:37.513Z,99248.80
2018-01-22T23:39:05.148Z,99250.08
2018-01-22T23:41:32.680Z,99251.67
2018-01-22T23:44:00.214Z,99245.81
2018-01-22T23:46:27.795Z,99248.86
2018-01-22T23:48:55.335Z,99253.13
2018-01-22T23:51:22.874Z,99255.48
2018-01-22T23:53:50.458Z,99254.52
2018-01-22T23:56:18.162Z,99257.25
2018-01-22T23:58:45.747Z,99259.56
